sensor_id;sensor_type;location;lat;lon;timestamp;temperature;humidity
15013;DHT22;7603;49.432;11.418;2023-04-03T00:00:29;2.40;99.90
15013;DHT22;7603;49.432;11.418;2023-04-03T00:02:55;2.30;99.90
15013;DHT22;7603;49.432;11.418;2023-04-03T00:05:21;2.20;99.90
15013;DHT22;7603;49.432;11.418;2023-04-03T00:07:46;2.20;99.90
15013;DHT22;7603;49.432;11.418;2023-04-03T00:10:12;2.10;99.90
15013;DHT22;7603;49.432;11.418;2023-04-03T00:12:39;2.00;99.90
15013;DHT22;7603;49.432;11.418;2023-04-03T00:15:05;2.00;99.90
15013;DHT22;7603;49.432;11.418;2023-04-03T00:17:30;1.90;99.90
15013;DHT22;7603;49.432;11.418;2023-04-03T00:19:56;1.80;99.90
15013;DHT22;7603;49.432;11.418;2023-04-03T00:22:21;1.70;99.90
15013;DHT22;7603;49.432;11.418;2023-04-03T00:24:47;1.70;99.90
15013;DHT22;7603;49.432;11.418;2023-04-03T00:27:12;1.60;99.90
15013;DHT22;7603;49.432;11.418;2023-04-03T00:29:38;1.60;99.90
15013;DHT22;7603;49.432;11.418;2023-04-03T00:32:03;1.60;99.90
15013;DHT22;7603;49.432;11.418;2023-04-03T00:34:29;1.50;99.90
15013;DHT22;7603;49.432;11.418;2023-04-03T00:36:55;1.50;99.90
15013;DHT22;7603;49.432;11.418;2023-04-03T00:39:21;1.40;99.90
15013;DHT22;7603;49.432;11.418;2023-04-03T00:41:46;1.40;99.90
15013;DHT22;7603;49.432;11.418;2023-04-03T00:45:22;1.40;99.90
15013;DHT22;7603;49.432;11.418;2023-04-03T00:47:12;1.30;99.90
15013;DHT22;7603;49.432;11.418;2023-04-03T00:49:38;1.30;99.90
15013;DHT22;7603;49.432;11.418;2023-04-03T00:52:14;1.30;99.90
15013;DHT22;7603;49.432;11.418;2023-04-03T00:54:41;1.30;99.90
15013;DHT22;7603;49.432;11.418;2023-04-03T00:57:08;1.30;99.90
15013;DHT22;7603;49.432;11.418;2023-04-03T00:59:40;1.20;99.90
15013;DHT22;7603;49.432;11.418;2023-04-03T01:02:08;1.20;99.90
15013;DHT22;7603;49.432;11.418;2023-04-03T01:04:43;1.20;99.90
15013;DHT22;7603;49.432;11.418;2023-04-03T01:07:18;1.10;99.90
15013;DHT22;7603;49.432;11.418;2023-04-03T01:09:46;1.00;99.90
15013;DHT22;7603;49.432;11.418;2023-04-03T01:12:20;0.90;99.90
15013;DHT22;7603;49.432;11.418;2023-04-03T01:14:52;0.90;99.90
15013;DHT22;7603;49.432;11.418;2023-04-03T01:25:21;0.70;99.90
15013;DHT22;7603;49.432;11.418;2023-04-03T01:27:47;0.70;99.90
15013;DHT22;7603;49.432;11.418;2023-04-03T01:30:17;0.60;99.90
15013;DHT22;7603;49.432;11.418;2023-04-03T01:32:43;0.60;99.90
15013;DHT22;7603;49.432;11.418;2023-04-03T01:35:10;0.50;99.90
15013;DHT22;7603;49.432;11.418;2023-04-03T01:37:36;0.50;99.90
15013;DHT22;7603;49.432;11.418;2023-04-03T01:40:02;0.40;99.90
15013;DHT22;7603;49.432;11.418;2023-04-03T01:42:28;0.40;99.90
15013;DHT22;7603;49.432;11.418;2023-04-03T01:44:54;0.30;99.90
15013;DHT22;7603;49.432;11.418;2023-04-03T01:47:20;0.30;99.90
15013;DHT22;7603;49.432;11.418;2023-04-03T01:49:45;0.20;99.90
15013;DHT22;7603;49.432;11.418;2023-04-03T01:52:11;0.20;99.90
15013;DHT22;7603;49.432;11.418;2023-04-03T01:54:37;0.10;99.90
15013;DHT22;7603;49.432;11.418;2023-04-03T01:57:02;0.00;99.90
15013;DHT22;7603;49.432;11.418;2023-04-03T01:59:28;0.00;99.90
15013;DHT22;7603;49.432;11.418;2023-04-03T02:01:53;-0.10;99.90
15013;DHT22;7603;49.432;11.418;2023-04-03T02:04:19;-0.10;99.90
15013;DHT22;7603;49.432;11.418;2023-04-03T02:06:45;-0.20;99.90
15013;DHT22;7603;49.432;11.418;2023-04-03T02:09:10;-0.30;99.90
15013;DHT22;7603;49.432;11.418;2023-04-03T02:11:36;-0.30;99.90
15013;DHT22;7603;49.432;11.418;2023-04-03T02:14:02;-0.30;99.90
15013;DHT22;7603;49.432;11.418;2023-04-03T02:16:27;-0.30;99.90
15013;DHT22;7603;49.432;11.418;2023-04-03T02:18:54;-0.40;99.90
15013;DHT22;7603;49.432;11.418;2023-04-03T02:21:19;-0.50;99.90
15013;DHT22;7603;49.432;11.418;2023-04-03T02:23:45;-0.60;99.90
15013;DHT22;7603;49.432;11.418;2023-04-03T02:26:12;-0.70;99.90
15013;DHT22;7603;49.432;11.418;2023-04-03T02:28:39;-0.70;99.90
15013;DHT22;7603;49.432;11.418;2023-04-03T02:31:05;-0.80;99.90
15013;DHT22;7603;49.432;11.418;2023-04-03T02:33:32;-0.80;99.90
15013;DHT22;7603;49.432;11.418;2023-04-03T02:35:58;-0.90;99.90
15013;DHT22;7603;49.432;11.418;2023-04-03T02:38:24;-0.90;99.90
15013;DHT22;7603;49.432;11.418;2023-04-03T02:40:51;-0.80;99.90
15013;DHT22;7603;49.432;11.418;2023-04-03T02:43:17;-0.80;99.90
15013;DHT22;7603;49.432;11.418;2023-04-03T02:45:43;-0.80;99.90
15013;DHT22;7603;49.432;11.418;2023-04-03T02:48:09;-0.80;99.90
15013;DHT22;7603;49.432;11.418;2023-04-03T02:50:35;-0.80;99.90
15013;DHT22;7603;49.432;11.418;2023-04-03T02:53:00;-0.80;99.90
15013;DHT22;7603;49.432;11.418;2023-04-03T02:55:26;-0.70;99.90
15013;DHT22;7603;49.432;11.418;2023-04-03T02:57:51;-0.70;99.90
15013;DHT22;7603;49.432;11.418;2023-04-03T03:00:17;-0.60;99.90
15013;DHT22;7603;49.432;11.418;2023-04-03T03:02:43;-0.60;99.90
15013;DHT22;7603;49.432;11.418;2023-04-03T03:05:08;-0.60;99.90
15013;DHT22;7603;49.432;11.418;2023-04-03T03:07:34;-0.50;99.90
15013;DHT22;7603;49.432;11.418;2023-04-03T03:10:00;-0.50;99.90
15013;DHT22;7603;49.432;11.418;2023-04-03T03:12:25;-0.50;99.90
15013;DHT22;7603;49.432;11.418;2023-04-03T03:14:51;-0.40;99.90
15013;DHT22;7603;49.432;11.418;2023-04-03T03:17:17;-0.40;99.90
15013;DHT22;7603;49.432;11.418;2023-04-03T03:19:43;-0.40;99.90
15013;DHT22;7603;49.432;11.418;2023-04-03T03:22:08;-0.40;99.90
15013;DHT22;7603;49.432;11.418;2023-04-03T03:24:34;-0.40;99.90
15013;DHT22;7603;49.432;11.418;2023-04-03T03:27:00;-0.30;99.90
15013;DHT22;7603;49.432;11.418;2023-04-03T03:29:25;-0.30;99.90
15013;DHT22;7603;49.432;11.418;2023-04-03T03:31:51;-0.30;99.90
15013;DHT22;7603;49.432;11.418;2023-04-03T03:34:17;-0.30;99.90
15013;DHT22;7603;49.432;11.418;2023-04-03T03:36:42;-0.20;99.90
15013;DHT22;7603;49.432;11.418;2023-04-03T03:39:08;-0.20;99.90
15013;DHT22;7603;49.432;11.418;2023-04-03T03:41:33;-0.20;99.90
15013;DHT22;7603;49.432;11.418;2023-04-03T03:43:59;-0.20;99.90
15013;DHT22;7603;49.432;11.418;2023-04-03T03:46:25;-0.10;99.90
15013;DHT22;7603;49.432;11.418;2023-04-03T03:48:50;-0.10;99.90
15013;DHT22;7603;49.432;11.418;2023-04-03T03:51:16;0.00;99.90
15013;DHT22;7603;49.432;11.418;2023-04-03T03:53:42;0.00;99.90
15013;DHT22;7603;49.432;11.418;2023-04-03T03:56:07;0.00;99.90
15013;DHT22;7603;49.432;11.418;2023-04-03T03:58:33;0.00;99.90
15013;DHT22;7603;49.432;11.418;2023-04-03T04:01:06;0.00;99.90
15013;DHT22;7603;49.432;11.418;2023-04-03T04:03:32;0.00;99.90
15013;DHT22;7603;49.432;11.418;2023-04-03T04:05:58;0.00;99.90
15013;DHT22;7603;49.432;11.418;2023-04-03T04:08:24;0.00;99.90
15013;DHT22;7603;49.432;11.418;2023-04-03T04:10:50;0.00;99.90
15013;DHT22;7603;49.432;11.418;2023-04-03T04:13:16;0.00;99.90
15013;DHT22;7603;49.432;11.418;2023-04-03T04:15:42;0.00;99.90
15013;DHT22;7603;49.432;11.418;2023-04-03T04:18:08;0.00;99.90
15013;DHT22;7603;49.432;11.418;2023-04-03T04:20:33;0.00;99.90
15013;DHT22;7603;49.432;11.418;2023-04-03T04:22:59;0.00;99.90
15013;DHT22;7603;49.432;11.418;2023-04-03T04:25:24;0.10;99.90
15013;DHT22;7603;49.432;11.418;2023-04-03T04:27:50;0.10;99.90
15013;DHT22;7603;49.432;11.418;2023-04-03T04:30:16;0.10;99.90
15013;DHT22;7603;49.432;11.418;2023-04-03T04:32:41;0.10;99.90
15013;DHT22;7603;49.432;11.418;2023-04-03T04:35:07;0.20;99.90
15013;DHT22;7603;49.432;11.418;2023-04-03T04:37:33;0.30;99.90
15013;DHT22;7603;49.432;11.418;2023-04-03T04:39:59;0.30;99.90
15013;DHT22;7603;49.432;11.418;2023-04-03T04:42:25;0.30;99.90
15013;DHT22;7603;49.432;11.418;2023-04-03T04:44:51;0.30;99.90
15013;DHT22;7603;49.432;11.418;2023-04-03T04:47:16;0.30;99.90
15013;DHT22;7603;49.432;11.418;2023-04-03T04:49:42;0.40;99.90
15013;DHT22;7603;49.432;11.418;2023-04-03T04:52:07;0.50;99.90
15013;DHT22;7603;49.432;11.418;2023-04-03T04:54:33;0.50;99.90
15013;DHT22;7603;49.432;11.418;2023-04-03T04:56:59;0.50;99.90
15013;DHT22;7603;49.432;11.418;2023-04-03T04:59:24;0.50;99.90
15013;DHT22;7603;49.432;11.418;2023-04-03T05:01:50;0.50;99.90
15013;DHT22;7603;49.432;11.418;2023-04-03T05:04:16;0.40;99.90
15013;DHT22;7603;49.432;11.418;2023-04-03T05:06:41;0.40;99.90
15013;DHT22;7603;49.432;11.418;2023-04-03T05:09:07;0.40;99.90
15013;DHT22;7603;49.432;11.418;2023-04-03T05:11:34;0.40;99.90
15013;DHT22;7603;49.432;11.418;2023-04-03T05:14:00;0.50;99.90
15013;DHT22;7603;49.432;11.418;2023-04-03T05:16:25;0.60;99.90
15013;DHT22;7603;49.432;11.418;2023-04-03T05:18:51;0.70;99.90
15013;DHT22;7603;49.432;11.418;2023-04-03T05:21:16;0.80;99.90
15013;DHT22;7603;49.432;11.418;2023-04-03T05:23:43;0.90;99.90
15013;DHT22;7603;49.432;11.418;2023-04-03T05:26:09;1.00;99.90
15013;DHT22;7603;49.432;11.418;2023-04-03T05:28:35;1.10;99.90
15013;DHT22;7603;49.432;11.418;2023-04-03T05:31:00;1.20;99.90
15013;DHT22;7603;49.432;11.418;2023-04-03T05:33:26;1.30;99.90
15013;DHT22;7603;49.432;11.418;2023-04-03T05:35:52;1.40;99.90
15013;DHT22;7603;49.432;11.418;2023-04-03T05:38:18;1.50;99.90
15013;DHT22;7603;49.432;11.418;2023-04-03T05:40:44;1.60;99.90
15013;DHT22;7603;49.432;11.418;2023-04-03T05:43:09;1.70;99.90
15013;DHT22;7603;49.432;11.418;2023-04-03T05:45:35;1.90;99.90
15013;DHT22;7603;49.432;11.418;2023-04-03T05:48:01;2.00;99.90
15013;DHT22;7603;49.432;11.418;2023-04-03T05:50:27;2.10;99.90
15013;DHT22;7603;49.432;11.418;2023-04-03T05:52:56;2.20;99.90
15013;DHT22;7603;49.432;11.418;2023-04-03T05:55:22;2.30;99.90
15013;DHT22;7603;49.432;11.418;2023-04-03T05:57:48;2.40;99.90
15013;DHT22;7603;49.432;11.418;2023-04-03T06:00:14;2.40;99.90
15013;DHT22;7603;49.432;11.418;2023-04-03T06:02:43;2.50;99.90
15013;DHT22;7603;49.432;11.418;2023-04-03T06:05:09;2.60;99.90
15013;DHT22;7603;49.432;11.418;2023-04-03T06:07:36;2.70;99.90
15013;DHT22;7603;49.432;11.418;2023-04-03T06:10:03;2.70;99.90
15013;DHT22;7603;49.432;11.418;2023-04-03T06:12:29;2.90;99.90
15013;DHT22;7603;49.432;11.418;2023-04-03T06:14:55;3.00;99.90
15013;DHT22;7603;49.432;11.418;2023-04-03T06:17:21;3.10;99.90
15013;DHT22;7603;49.432;11.418;2023-04-03T06:19:47;3.20;99.90
15013;DHT22;7603;49.432;11.418;2023-04-03T06:22:12;3.30;99.90
15013;DHT22;7603;49.432;11.418;2023-04-03T06:24:38;3.40;99.90
15013;DHT22;7603;49.432;11.418;2023-04-03T06:27:04;3.40;99.90
15013;DHT22;7603;49.432;11.418;2023-04-03T06:29:30;3.50;99.90
15013;DHT22;7603;49.432;11.418;2023-04-03T06:31:56;3.70;99.90
15013;DHT22;7603;49.432;11.418;2023-04-03T06:34:21;3.70;99.90
15013;DHT22;7603;49.432;11.418;2023-04-03T06:36:47;3.80;99.90
15013;DHT22;7603;49.432;11.418;2023-04-03T06:39:23;4.00;99.90
15013;DHT22;7603;49.432;11.418;2023-04-03T06:41:50;4.00;99.90
15013;DHT22;7603;49.432;11.418;2023-04-03T06:44:15;4.10;99.90
15013;DHT22;7603;49.432;11.418;2023-04-03T06:46:41;4.20;99.90
15013;DHT22;7603;49.432;11.418;2023-04-03T06:49:07;4.40;99.90
15013;DHT22;7603;49.432;11.418;2023-04-03T06:51:34;4.50;99.90
15013;DHT22;7603;49.432;11.418;2023-04-03T06:54:01;4.60;99.90
15013;DHT22;7603;49.432;11.418;2023-04-03T06:56:27;4.60;99.90
15013;DHT22;7603;49.432;11.418;2023-04-03T06:58:54;4.70;99.90
15013;DHT22;7603;49.432;11.418;2023-04-03T07:01:24;4.90;99.90
15013;DHT22;7603;49.432;11.418;2023-04-03T07:03:50;5.00;99.90
15013;DHT22;7603;49.432;11.418;2023-04-03T07:06:16;5.10;99.90
15013;DHT22;7603;49.432;11.418;2023-04-03T07:08:42;5.30;99.90
15013;DHT22;7603;49.432;11.418;2023-04-03T07:11:09;5.50;99.90
15013;DHT22;7603;49.432;11.418;2023-04-03T07:13:35;5.60;99.90
15013;DHT22;7603;49.432;11.418;2023-04-03T07:16:02;5.60;99.90
15013;DHT22;7603;49.432;11.418;2023-04-03T07:18:29;5.60;99.90
15013;DHT22;7603;49.432;11.418;2023-04-03T07:20:55;5.60;99.90
15013;DHT22;7603;49.432;11.418;2023-04-03T07:23:21;5.70;99.90
15013;DHT22;7603;49.432;11.418;2023-04-03T07:25:48;5.80;99.90
15013;DHT22;7603;49.432;11.418;2023-04-03T07:28:15;5.90;99.90
15013;DHT22;7603;49.432;11.418;2023-04-03T07:30:52;6.00;99.90
15013;DHT22;7603;49.432;11.418;2023-04-03T07:33:19;6.30;99.90
15013;DHT22;7603;49.432;11.418;2023-04-03T07:35:45;6.40;99.90
15013;DHT22;7603;49.432;11.418;2023-04-03T07:38:12;6.50;99.90
15013;DHT22;7603;49.432;11.418;2023-04-03T07:40:38;6.70;99.90
15013;DHT22;7603;49.432;11.418;2023-04-03T07:43:05;6.80;99.90
15013;DHT22;7603;49.432;11.418;2023-04-03T07:45:32;6.90;99.90
15013;DHT22;7603;49.432;11.418;2023-04-03T07:47:59;7.00;99.90
15013;DHT22;7603;49.432;11.418;2023-04-03T07:50:25;7.10;99.90
15013;DHT22;7603;49.432;11.418;2023-04-03T07:52:51;7.30;99.90
15013;DHT22;7603;49.432;11.418;2023-04-03T07:55:17;7.50;99.90
15013;DHT22;7603;49.432;11.418;2023-04-03T07:57:43;7.80;99.90
15013;DHT22;7603;49.432;11.418;2023-04-03T08:00:09;8.00;99.90
15013;DHT22;7603;49.432;11.418;2023-04-03T08:02:35;8.10;99.90
15013;DHT22;7603;49.432;11.418;2023-04-03T08:05:00;8.00;99.90
15013;DHT22;7603;49.432;11.418;2023-04-03T08:07:26;8.00;99.90
15013;DHT22;7603;49.432;11.418;2023-04-03T08:09:52;8.10;99.90
15013;DHT22;7603;49.432;11.418;2023-04-03T08:12:18;8.20;99.90
15013;DHT22;7603;49.432;11.418;2023-04-03T08:14:44;8.40;99.90
15013;DHT22;7603;49.432;11.418;2023-04-03T08:17:10;8.50;99.90
15013;DHT22;7603;49.432;11.418;2023-04-03T08:19:38;8.60;99.90
15013;DHT22;7603;49.432;11.418;2023-04-03T08:22:04;8.70;99.90
15013;DHT22;7603;49.432;11.418;2023-04-03T08:24:31;9.00;99.90
15013;DHT22;7603;49.432;11.418;2023-04-03T08:26:57;9.20;99.90
15013;DHT22;7603;49.432;11.418;2023-04-03T08:29:23;9.40;99.90
15013;DHT22;7603;49.432;11.418;2023-04-03T08:31:49;9.60;99.90
15013;DHT22;7603;49.432;11.418;2023-04-03T08:34:15;9.90;99.90
15013;DHT22;7603;49.432;11.418;2023-04-03T08:36:42;10.10;99.90
15013;DHT22;7603;49.432;11.418;2023-04-03T08:39:07;10.30;99.90
15013;DHT22;7603;49.432;11.418;2023-04-03T08:41:35;10.40;99.90
15013;DHT22;7603;49.432;11.418;2023-04-03T08:44:39;10.30;99.90
15013;DHT22;7603;49.432;11.418;2023-04-03T08:47:14;10.30;99.90
15013;DHT22;7603;49.432;11.418;2023-04-03T08:49:58;10.10;99.90
15013;DHT22;7603;49.432;11.418;2023-04-03T08:52:44;9.90;99.90
15013;DHT22;7603;49.432;11.418;2023-04-03T08:55:46;9.70;99.90
15013;DHT22;7603;49.432;11.418;2023-04-03T09:00:57;9.50;99.90
15013;DHT22;7603;49.432;11.418;2023-04-03T09:03:23;9.40;99.90
15013;DHT22;7603;49.432;11.418;2023-04-03T09:05:57;9.30;99.90
15013;DHT22;7603;49.432;11.418;2023-04-03T09:08:58;9.40;99.90
15013;DHT22;7603;49.432;11.418;2023-04-03T09:17:09;9.10;99.90
15013;DHT22;7603;49.432;11.418;2023-04-03T09:19:54;9.20;99.90
15013;DHT22;7603;49.432;11.418;2023-04-03T09:22:26;9.30;99.90
15013;DHT22;7603;49.432;11.418;2023-04-03T09:24:59;9.50;99.30
15013;DHT22;7603;49.432;11.418;2023-04-03T09:27:26;9.60;98.50
15013;DHT22;7603;49.432;11.418;2023-04-03T09:29:54;9.70;98.00
15013;DHT22;7603;49.432;11.418;2023-04-03T09:32:32;9.70;97.60
15013;DHT22;7603;49.432;11.418;2023-04-03T09:35:27;9.70;97.50
15013;DHT22;7603;49.432;11.418;2023-04-03T09:38:02;10.20;97.70
15013;DHT22;7603;49.432;11.418;2023-04-03T09:40:44;11.20;97.60
15013;DHT22;7603;49.432;11.418;2023-04-03T09:45:46;14.10;89.20
15013;DHT22;7603;49.432;11.418;2023-04-03T10:01:33;12.70;74.70
15013;DHT22;7603;49.432;11.418;2023-04-03T10:04:17;12.80;71.30
15013;DHT22;7603;49.432;11.418;2023-04-03T10:09:27;12.60;73.30
15013;DHT22;7603;49.432;11.418;2023-04-03T10:12:01;12.50;72.40
15013;DHT22;7603;49.432;11.418;2023-04-03T10:14:28;12.40;71.10
15013;DHT22;7603;49.432;11.418;2023-04-03T10:17:18;12.30;68.30
15013;DHT22;7603;49.432;11.418;2023-04-03T10:22:49;12.30;65.50
15013;DHT22;7603;49.432;11.418;2023-04-03T10:25:40;13.20;65.30
15013;DHT22;7603;49.432;11.418;2023-04-03T10:28:27;14.90;59.70
15013;DHT22;7603;49.432;11.418;2023-04-03T10:34:06;16.40;53.40
15013;DHT22;7603;49.432;11.418;2023-04-03T10:39:59;15.40;52.70
15013;DHT22;7603;49.432;11.418;2023-04-03T10:42:37;14.80;53.10
15013;DHT22;7603;49.432;11.418;2023-04-03T10:45:27;14.70;54.00
15013;DHT22;7603;49.432;11.418;2023-04-03T10:53:34;18.00;49.30
15013;DHT22;7603;49.432;11.418;2023-04-03T10:58:45;19.70;42.90
15013;DHT22;7603;49.432;11.418;2023-04-03T11:01:16;19.40;42.50
15013;DHT22;7603;49.432;11.418;2023-04-03T11:03:46;18.80;43.50
15013;DHT22;7603;49.432;11.418;2023-04-03T11:06:15;18.60;42.20
15013;DHT22;7603;49.432;11.418;2023-04-03T11:08:49;19.40;44.10
15013;DHT22;7603;49.432;11.418;2023-04-03T11:11:21;21.10;40.20
15013;DHT22;7603;49.432;11.418;2023-04-03T11:14:00;23.10;36.60
15013;DHT22;7603;49.432;11.418;2023-04-03T11:16:30;24.00;34.20
15013;DHT22;7603;49.432;11.418;2023-04-03T11:19:01;23.20;30.30
15013;DHT22;7603;49.432;11.418;2023-04-03T11:21:32;22.50;31.30
15013;DHT22;7603;49.432;11.418;2023-04-03T11:24:03;23.10;30.60
15013;DHT22;7603;49.432;11.418;2023-04-03T11:26:36;24.40;31.50
15013;DHT22;7603;49.432;11.418;2023-04-03T11:29:09;26.20;30.10
15013;DHT22;7603;49.432;11.418;2023-04-03T11:37:11;29.80;24.90
15013;DHT22;7603;49.432;11.418;2023-04-03T11:39:39;30.30;25.80
15013;DHT22;7603;49.432;11.418;2023-04-03T11:42:15;30.10;24.40
15013;DHT22;7603;49.432;11.418;2023-04-03T11:44:42;29.90;23.90
15013;DHT22;7603;49.432;11.418;2023-04-03T11:47:09;30.40;24.50
15013;DHT22;7603;49.432;11.418;2023-04-03T12:08:42;27.30;24.80
15013;DHT22;7603;49.432;11.418;2023-04-03T12:16:05;30.70;21.70
15013;DHT22;7603;49.432;11.418;2023-04-03T12:21:24;29.00;20.90
15013;DHT22;7603;49.432;11.418;2023-04-03T12:29:10;29.40;22.00
15013;DHT22;7603;49.432;11.418;2023-04-03T12:34:50;31.40;20.10
15013;DHT22;7603;49.432;11.418;2023-04-03T12:40:51;29.30;19.40
15013;DHT22;7603;49.432;11.418;2023-04-03T12:43:48;28.60;20.40
15013;DHT22;7603;49.432;11.418;2023-04-03T12:46:18;29.20;20.40
15013;DHT22;7603;49.432;11.418;2023-04-03T12:51:21;31.80;18.80
15013;DHT22;7603;49.432;11.418;2023-04-03T12:53:49;32.60;19.10
15013;DHT22;7603;49.432;11.418;2023-04-03T12:56:26;33.20;19.40
15013;DHT22;7603;49.432;11.418;2023-04-03T12:58:55;33.70;18.10
15013;DHT22;7603;49.432;11.418;2023-04-03T13:01:23;34.90;18.40
15013;DHT22;7603;49.432;11.418;2023-04-03T13:03:55;35.00;17.70
15013;DHT22;7603;49.432;11.418;2023-04-03T13:06:23;34.50;18.10
15013;DHT22;7603;49.432;11.418;2023-04-03T13:08:55;34.50;18.30
15013;DHT22;7603;49.432;11.418;2023-04-03T13:11:23;33.80;17.80
15013;DHT22;7603;49.432;11.418;2023-04-03T13:14:12;32.90;18.10
15013;DHT22;7603;49.432;11.418;2023-04-03T13:16:39;31.40;17.70
15013;DHT22;7603;49.432;11.418;2023-04-03T13:19:16;29.90;18.70
15013;DHT22;7603;49.432;11.418;2023-04-03T13:21:43;28.60;19.10
15013;DHT22;7603;49.432;11.418;2023-04-03T13:24:10;28.40;20.10
15013;DHT22;7603;49.432;11.418;2023-04-03T13:26:36;29.20;20.60
15013;DHT22;7603;49.432;11.418;2023-04-03T13:29:07;30.20;19.00
15013;DHT22;7603;49.432;11.418;2023-04-03T13:31:42;31.50;18.60
15013;DHT22;7603;49.432;11.418;2023-04-03T13:34:18;33.10;18.40
15013;DHT22;7603;49.432;11.418;2023-04-03T13:41:42;34.40;17.20
15013;DHT22;7603;49.432;11.418;2023-04-03T13:46:49;33.80;17.30
15013;DHT22;7603;49.432;11.418;2023-04-03T13:49:36;34.40;17.70
15013;DHT22;7603;49.432;11.418;2023-04-03T13:52:23;35.10;16.00
15013;DHT22;7603;49.432;11.418;2023-04-03T13:55:01;35.20;16.90
15013;DHT22;7603;49.432;11.418;2023-04-03T13:57:27;35.00;16.80
15013;DHT22;7603;49.432;11.418;2023-04-03T13:59:53;34.20;17.00
15013;DHT22;7603;49.432;11.418;2023-04-03T14:02:38;33.10;17.10
15013;DHT22;7603;49.432;11.418;2023-04-03T14:05:04;32.30;17.50
15013;DHT22;7603;49.432;11.418;2023-04-03T14:07:33;31.80;17.70
15013;DHT22;7603;49.432;11.418;2023-04-03T14:09:59;32.40;18.20
15013;DHT22;7603;49.432;11.418;2023-04-03T14:12:37;33.70;17.90
15013;DHT22;7603;49.432;11.418;2023-04-03T14:17:42;33.00;16.10
15013;DHT22;7603;49.432;11.418;2023-04-03T14:20:15;31.90;17.10
15013;DHT22;7603;49.432;11.418;2023-04-03T14:22:41;32.60;17.50
15013;DHT22;7603;49.432;11.418;2023-04-03T14:25:07;33.40;16.80
15013;DHT22;7603;49.432;11.418;2023-04-03T14:27:41;32.70;17.30
15013;DHT22;7603;49.432;11.418;2023-04-03T14:30:13;30.70;17.70
15013;DHT22;7603;49.432;11.418;2023-04-03T14:32:39;28.20;18.90
15013;DHT22;7603;49.432;11.418;2023-04-03T14:35:05;26.40;20.50
15013;DHT22;7603;49.432;11.418;2023-04-03T14:37:32;25.60;21.40
15013;DHT22;7603;49.432;11.418;2023-04-03T14:40:00;24.60;21.40
15013;DHT22;7603;49.432;11.418;2023-04-03T14:42:32;23.60;22.30
15013;DHT22;7603;49.432;11.418;2023-04-03T14:44:59;22.70;23.10
15013;DHT22;7603;49.432;11.418;2023-04-03T14:47:28;22.20;23.50
15013;DHT22;7603;49.432;11.418;2023-04-03T14:49:54;22.70;23.90
15013;DHT22;7603;49.432;11.418;2023-04-03T14:52:27;24.70;23.60
15013;DHT22;7603;49.432;11.418;2023-04-03T14:54:54;27.10;22.70
15013;DHT22;7603;49.432;11.418;2023-04-03T14:57:23;29.50;20.80
15013;DHT22;7603;49.432;11.418;2023-04-03T14:59:49;31.30;19.20
15013;DHT22;7603;49.432;11.418;2023-04-03T15:02:32;32.60;18.80
15013;DHT22;7603;49.432;11.418;2023-04-03T15:05:00;32.70;18.20
15013;DHT22;7603;49.432;11.418;2023-04-03T15:07:30;32.60;18.80
15013;DHT22;7603;49.432;11.418;2023-04-03T15:09:56;32.10;19.00
15013;DHT22;7603;49.432;11.418;2023-04-03T15:12:23;30.70;18.80
15013;DHT22;7603;49.432;11.418;2023-04-03T15:14:49;28.60;19.40
15013;DHT22;7603;49.432;11.418;2023-04-03T15:17:18;26.40;20.40
15013;DHT22;7603;49.432;11.418;2023-04-03T15:19:45;25.30;21.80
15013;DHT22;7603;49.432;11.418;2023-04-03T15:22:15;25.20;22.50
15013;DHT22;7603;49.432;11.418;2023-04-03T15:24:42;24.70;22.40
15013;DHT22;7603;49.432;11.418;2023-04-03T15:27:09;24.90;22.70
15013;DHT22;7603;49.432;11.418;2023-04-03T15:29:36;26.10;22.80
15013;DHT22;7603;49.432;11.418;2023-04-03T15:32:01;27.70;22.10
15013;DHT22;7603;49.432;11.418;2023-04-03T15:34:28;29.00;21.40
15013;DHT22;7603;49.432;11.418;2023-04-03T15:36:54;28.50;20.20
15013;DHT22;7603;49.432;11.418;2023-04-03T15:39:19;26.70;20.30
15013;DHT22;7603;49.432;11.418;2023-04-03T15:41:46;24.40;21.70
15013;DHT22;7603;49.432;11.418;2023-04-03T15:44:11;21.90;23.20
15013;DHT22;7603;49.432;11.418;2023-04-03T15:46:38;20.00;25.50
15013;DHT22;7603;49.432;11.418;2023-04-03T15:49:04;18.30;26.90
15013;DHT22;7603;49.432;11.418;2023-04-03T15:51:31;16.90;29.10
15013;DHT22;7603;49.432;11.418;2023-04-03T15:53:57;15.90;30.20
15013;DHT22;7603;49.432;11.418;2023-04-03T15:56:22;15.10;31.10
15013;DHT22;7603;49.432;11.418;2023-04-03T15:58:48;14.50;32.20
15013;DHT22;7603;49.432;11.418;2023-04-03T16:01:14;13.90;33.50
15013;DHT22;7603;49.432;11.418;2023-04-03T16:03:41;13.30;34.50
15013;DHT22;7603;49.432;11.418;2023-04-03T16:06:12;12.90;35.50
15013;DHT22;7603;49.432;11.418;2023-04-03T16:08:38;12.60;36.40
15013;DHT22;7603;49.432;11.418;2023-04-03T16:11:03;12.70;36.70
15013;DHT22;7603;49.432;11.418;2023-04-03T16:13:29;12.90;37.00
15013;DHT22;7603;49.432;11.418;2023-04-03T16:15:55;13.00;37.20
15013;DHT22;7603;49.432;11.418;2023-04-03T16:18:21;14.00;37.60
15013;DHT22;7603;49.432;11.418;2023-04-03T16:20:47;15.40;36.40
15013;DHT22;7603;49.432;11.418;2023-04-03T16:23:13;16.20;33.40
15013;DHT22;7603;49.432;11.418;2023-04-03T16:25:38;16.70;32.30
15013;DHT22;7603;49.432;11.418;2023-04-03T16:28:04;16.30;31.50
15013;DHT22;7603;49.432;11.418;2023-04-03T16:30:30;15.70;32.20
15013;DHT22;7603;49.432;11.418;2023-04-03T16:32:57;15.20;33.70
15013;DHT22;7603;49.432;11.418;2023-04-03T16:35:22;15.90;35.00
15013;DHT22;7603;49.432;11.418;2023-04-03T16:37:49;16.60;33.90
15013;DHT22;7603;49.432;11.418;2023-04-03T16:40:15;18.10;33.10
15013;DHT22;7603;49.432;11.418;2023-04-03T16:42:41;19.30;31.20
15013;DHT22;7603;49.432;11.418;2023-04-03T16:45:07;19.70;29.50
15013;DHT22;7603;49.432;11.418;2023-04-03T16:47:33;19.00;29.30
15013;DHT22;7603;49.432;11.418;2023-04-03T16:49:58;17.90;29.80
15013;DHT22;7603;49.432;11.418;2023-04-03T16:52:24;16.80;30.80
15013;DHT22;7603;49.432;11.418;2023-04-03T16:54:50;15.60;32.00
15013;DHT22;7603;49.432;11.418;2023-04-03T16:57:21;14.60;33.70
15013;DHT22;7603;49.432;11.418;2023-04-03T16:59:46;13.50;35.20
15013;DHT22;7603;49.432;11.418;2023-04-03T17:02:12;12.80;36.60
15013;DHT22;7603;49.432;11.418;2023-04-03T17:04:37;12.10;37.60
15013;DHT22;7603;49.432;11.418;2023-04-03T17:07:03;11.50;38.70
15013;DHT22;7603;49.432;11.418;2023-04-03T17:09:32;11.30;39.60
15013;DHT22;7603;49.432;11.418;2023-04-03T17:11:58;12.00;39.80
15013;DHT22;7603;49.432;11.418;2023-04-03T17:14:24;11.80;39.10
15013;DHT22;7603;49.432;11.418;2023-04-03T17:16:49;11.30;39.40
15013;DHT22;7603;49.432;11.418;2023-04-03T17:19:15;10.70;39.90
15013;DHT22;7603;49.432;11.418;2023-04-03T17:21:43;10.10;41.70
15013;DHT22;7603;49.432;11.418;2023-04-03T17:24:10;9.60;43.40
15013;DHT22;7603;49.432;11.418;2023-04-03T17:26:38;9.20;44.20
15013;DHT22;7603;49.432;11.418;2023-04-03T17:29:04;8.70;45.00
15013;DHT22;7603;49.432;11.418;2023-04-03T17:31:30;8.40;45.50
15013;DHT22;7603;49.432;11.418;2023-04-03T17:33:55;8.10;46.80